Daleville, VA (24083)

12:11 PM EDT on July 05, 2015 (GMT -0400)
Woodland | | Change Station
CLOSE
Current Station
Personal Weather Station
Location: Troutville, VA
Elevation: 1457 ft
Nearby Weather Stations

Elev 1457 ft 37.47 °N, 79.92 °W | Updated 35 seconds ago

Overcast
Overcast
72.3 °F
Feels Like 70 °F
N
0.9
Wind Variable Wind from NNE
Gusts 1.0 mph

Today
High -- | Low -- °F
--% Chance of Precip.
Yesterday
High -- | Low -- °F
Precip. -- in
6:04 AM 8:43 PM
Waning Gibbous, 84% visible
Pressure 30.15 in
Visibility 10.0 miles
Clouds Scattered Clouds 1400 ft
Mostly Cloudy 2100 ft
Overcast 2600 ft
Heat Index 70 °F
Dew Point 68 °F
Humidity 88%
Rainfall 0.00 in
Snow Depth Not available.
UV 3 out of 12
Pollen .90 out of 12
Air Quality Not available.
Flu Activity Not available.
METAR KROA 051554Z 13005KT 10SM SCT014 BKN021 OVC026 23/20 A3018 RMK AO2 SLP209 T02330200

More Conditions Fewer Conditions

Pressure 30.15 in
Visibility 10.0 miles
Clouds Scattered Clouds 1400 ft
Mostly Cloudy 2100 ft
Overcast 2600 ft
Heat Index 70 °F
Dew Point 68 °F
Humidity 88%
Rainfall 0.00 in
Snow Depth Not available.
UV 3 out of 12
Pollen .90 out of 12
Air Quality Not available.
Flu Activity Not available.
METAR KROA 051554Z 13005KT 10SM SCT014 BKN021 OVC026 23/20 A3018 RMK AO2 SLP209 T02330200

More Conditions Fewer Conditions

10-Day Weather Forecast

×

Almanac

Astronomy

Jul. 05, 2015 Rise Set
Actual Time
Civil Twilight
Nautical Twilight
Astronomical Twilight
Moon
Length of Visible Light
Length of Day
Tomorrow will be .
, % of the Moon is Illuminated

Today's Extremes

State Highs State Lows

Community

WunderPhotos

Upload Photos

1,835,302 photos uploaded!

WunderBlogs® & News

Nearby

Air Quality

  Air Quality AQ Index Pollutant
Not available.

Snow Depth

Station Depth Elevation

Earthquake Activity

City Distance Mag. Time & Date
Minimum magnitude displayed is 2.5.

Coastal Water Temperatures

Place Temperature

Stations

Nearby Weather Stations

Station Location Temp. Windchill Dew Point Humidity Wind Precip. Elev Updated Type